sensor_id;sensor_type;location;lat;lon;timestamp;P1;durP1;ratioP1;P2;durP2;ratioP2
57323;SDS011;43160;51.008;18.248;2024-02-16T00:07:37;54.00;;;19.40;;
57323;SDS011;43160;51.008;18.248;2024-02-16T00:17:24;30.30;;;11.60;;
57323;SDS011;43160;51.008;18.248;2024-02-16T00:27:11;32.80;;;17.60;;
57323;SDS011;43160;51.008;18.248;2024-02-16T00:37:01;24.90;;;10.00;;
57323;SDS011;43160;51.008;18.248;2024-02-16T00:46:57;37.20;;;13.50;;
57323;SDS011;43160;51.008;18.248;2024-02-16T00:56:42;32.00;;;14.70;;
57323;SDS011;43160;51.008;18.248;2024-02-16T01:06:27;39.40;;;14.30;;
57323;SDS011;43160;51.008;18.248;2024-02-16T01:16:11;29.30;;;12.40;;
57323;SDS011;43160;51.008;18.248;2024-02-16T01:25:57;35.50;;;12.30;;
57323;SDS011;43160;51.008;18.248;2024-02-16T01:35:41;25.60;;;8.50;;
57323;SDS011;43160;51.008;18.248;2024-02-16T01:45:24;31.50;;;12.20;;
57323;SDS011;43160;51.008;18.248;2024-02-16T01:55:09;19.00;;;7.10;;
57323;SDS011;43160;51.008;18.248;2024-02-16T02:04:54;27.50;;;8.90;;
57323;SDS011;43160;51.008;18.248;2024-02-16T02:14:41;23.10;;;10.40;;
57323;SDS011;43160;51.008;18.248;2024-02-16T02:24:26;41.30;;;12.50;;
57323;SDS011;43160;51.008;18.248;2024-02-16T02:34:09;28.90;;;13.90;;
57323;SDS011;43160;51.008;18.248;2024-02-16T02:43:52;27.60;;;11.80;;
57323;SDS011;43160;51.008;18.248;2024-02-16T02:53:36;28.00;;;10.50;;
57323;SDS011;43160;51.008;18.248;2024-02-16T03:03:20;22.80;;;11.40;;
57323;SDS011;43160;51.008;18.248;2024-02-16T03:13:04;30.30;;;11.70;;
57323;SDS011;43160;51.008;18.248;2024-02-16T03:22:50;28.50;;;11.90;;
57323;SDS011;43160;51.008;18.248;2024-02-16T03:32:34;13.80;;;5.30;;
57323;SDS011;43160;51.008;18.248;2024-02-16T03:42:19;42.40;;;10.90;;
57323;SDS011;43160;51.008;18.248;2024-02-16T03:52:03;24.90;;;9.40;;
57323;SDS011;43160;51.008;18.248;2024-02-16T04:01:46;24.30;;;8.20;;
57323;SDS011;43160;51.008;18.248;2024-02-16T04:11:33;35.40;;;14.10;;
57323;SDS011;43160;51.008;18.248;2024-02-16T04:21:18;25.90;;;10.00;;
57323;SDS011;43160;51.008;18.248;2024-02-16T04:31:01;34.10;;;15.60;;
57323;SDS011;43160;51.008;18.248;2024-02-16T04:40:45;33.90;;;15.40;;
57323;SDS011;43160;51.008;18.248;2024-02-16T04:50:31;41.30;;;12.60;;
57323;SDS011;43160;51.008;18.248;2024-02-16T05:00:14;27.10;;;7.00;;
57323;SDS011;43160;51.008;18.248;2024-02-16T05:09:58;31.30;;;12.10;;
57323;SDS011;43160;51.008;18.248;2024-02-16T05:19:44;29.20;;;13.00;;
57323;SDS011;43160;51.008;18.248;2024-02-16T05:29:27;32.30;;;11.30;;
57323;SDS011;43160;51.008;18.248;2024-02-16T05:39:13;27.70;;;10.40;;
57323;SDS011;43160;51.008;18.248;2024-02-16T05:49:04;30.30;;;11.50;;
57323;SDS011;43160;51.008;18.248;2024-02-16T05:58:54;30.60;;;10.60;;
57323;SDS011;43160;51.008;18.248;2024-02-16T06:08:37;28.20;;;12.30;;
57323;SDS011;43160;51.008;18.248;2024-02-16T06:18:24;30.70;;;12.60;;
57323;SDS011;43160;51.008;18.248;2024-02-16T06:28:08;35.90;;;10.00;;
57323;SDS011;43160;51.008;18.248;2024-02-16T06:37:54;27.80;;;12.20;;
57323;SDS011;43160;51.008;18.248;2024-02-16T06:47:37;30.30;;;13.80;;
57323;SDS011;43160;51.008;18.248;2024-02-16T06:57:21;37.20;;;15.50;;
57323;SDS011;43160;51.008;18.248;2024-02-16T07:07:06;35.10;;;17.20;;
57323;SDS011;43160;51.008;18.248;2024-02-16T07:16:50;31.20;;;14.50;;
57323;SDS011;43160;51.008;18.248;2024-02-16T07:26:34;25.90;;;10.00;;
57323;SDS011;43160;51.008;18.248;2024-02-16T07:36:23;15.60;;;8.30;;
57323;SDS011;43160;51.008;18.248;2024-02-16T07:46:09;22.70;;;10.60;;
57323;SDS011;43160;51.008;18.248;2024-02-16T07:55:54;25.60;;;11.30;;
57323;SDS011;43160;51.008;18.248;2024-02-16T08:05:37;17.00;;;6.40;;
57323;SDS011;43160;51.008;18.248;2024-02-16T08:15:22;19.20;;;8.20;;
57323;SDS011;43160;51.008;18.248;2024-02-16T08:25:09;17.90;;;7.70;;
57323;SDS011;43160;51.008;18.248;2024-02-16T08:34:55;20.20;;;7.80;;
57323;SDS011;43160;51.008;18.248;2024-02-16T08:44:39;18.90;;;7.80;;
57323;SDS011;43160;51.008;18.248;2024-02-16T08:54:24;21.60;;;7.40;;
57323;SDS011;43160;51.008;18.248;2024-02-16T09:04:11;15.10;;;6.10;;
57323;SDS011;43160;51.008;18.248;2024-02-16T09:13:56;16.00;;;7.40;;
57323;SDS011;43160;51.008;18.248;2024-02-16T09:23:39;20.00;;;6.30;;
57323;SDS011;43160;51.008;18.248;2024-02-16T09:33:23;18.30;;;7.80;;
57323;SDS011;43160;51.008;18.248;2024-02-16T09:43:07;14.30;;;5.90;;
57323;SDS011;43160;51.008;18.248;2024-02-16T09:52:54;14.00;;;5.60;;
57323;SDS011;43160;51.008;18.248;2024-02-16T10:02:49;21.70;;;4.30;;
57323;SDS011;43160;51.008;18.248;2024-02-16T10:12:49;12.50;;;4.30;;
57323;SDS011;43160;51.008;18.248;2024-02-16T10:23:03;11.40;;;3.60;;
57323;SDS011;43160;51.008;18.248;2024-02-16T10:33:04;10.60;;;3.60;;
57323;SDS011;43160;51.008;18.248;2024-02-16T10:42:49;12.70;;;4.40;;
57323;SDS011;43160;51.008;18.248;2024-02-16T10:52:36;14.90;;;5.30;;
57323;SDS011;43160;51.008;18.248;2024-02-16T11:02:24;11.10;;;3.90;;
57323;SDS011;43160;51.008;18.248;2024-02-16T11:12:12;9.70;;;3.80;;
57323;SDS011;43160;51.008;18.248;2024-02-16T11:22:04;9.90;;;3.20;;
57323;SDS011;43160;51.008;18.248;2024-02-16T11:31:59;9.40;;;2.70;;
57323;SDS011;43160;51.008;18.248;2024-02-16T11:41:47;11.10;;;4.00;;
57323;SDS011;43160;51.008;18.248;2024-02-16T11:51:34;8.10;;;3.50;;
57323;SDS011;43160;51.008;18.248;2024-02-16T12:01:17;12.70;;;4.60;;
57323;SDS011;43160;51.008;18.248;2024-02-16T12:11:10;8.40;;;3.30;;
57323;SDS011;43160;51.008;18.248;2024-02-16T12:30:50;7.70;;;2.70;;
57323;SDS011;43160;51.008;18.248;2024-02-16T12:40:33;9.10;;;2.70;;
57323;SDS011;43160;51.008;18.248;2024-02-16T12:50:16;8.30;;;3.30;;
57323;SDS011;43160;51.008;18.248;2024-02-16T13:00:03;11.90;;;4.00;;
57323;SDS011;43160;51.008;18.248;2024-02-16T13:09:47;9.60;;;3.60;;
57323;SDS011;43160;51.008;18.248;2024-02-16T13:19:34;9.00;;;3.10;;
57323;SDS011;43160;51.008;18.248;2024-02-16T13:29:17;10.20;;;3.10;;
57323;SDS011;43160;51.008;18.248;2024-02-16T13:39:03;9.60;;;2.40;;
57323;SDS011;43160;51.008;18.248;2024-02-16T13:48:47;8.40;;;2.70;;
57323;SDS011;43160;51.008;18.248;2024-02-16T13:58:31;9.30;;;3.20;;
57323;SDS011;43160;51.008;18.248;2024-02-16T14:08:17;11.80;;;3.80;;
57323;SDS011;43160;51.008;18.248;2024-02-16T14:18:00;7.90;;;3.10;;
57323;SDS011;43160;51.008;18.248;2024-02-16T14:27:44;10.40;;;3.30;;
57323;SDS011;43160;51.008;18.248;2024-02-16T14:37:31;11.90;;;3.20;;
57323;SDS011;43160;51.008;18.248;2024-02-16T14:47:16;10.30;;;4.10;;
57323;SDS011;43160;51.008;18.248;2024-02-16T14:57:01;8.20;;;1.80;;
57323;SDS011;43160;51.008;18.248;2024-02-16T15:06:47;11.20;;;3.30;;
57323;SDS011;43160;51.008;18.248;2024-02-16T15:16:34;9.90;;;2.90;;
57323;SDS011;43160;51.008;18.248;2024-02-16T15:33:36;12.60;;;4.60;;
57323;SDS011;43160;51.008;18.248;2024-02-16T15:43:19;21.90;;;9.30;;
57323;SDS011;43160;51.008;18.248;2024-02-16T15:53:06;19.60;;;8.70;;
57323;SDS011;43160;51.008;18.248;2024-02-16T16:02:51;15.10;;;5.60;;
57323;SDS011;43160;51.008;18.248;2024-02-16T16:12:36;13.80;;;4.80;;
57323;SDS011;43160;51.008;18.248;2024-02-16T16:22:21;10.30;;;2.90;;
57323;SDS011;43160;51.008;18.248;2024-02-16T16:32:05;15.90;;;6.90;;
57323;SDS011;43160;51.008;18.248;2024-02-16T16:41:51;11.70;;;4.50;;
57323;SDS011;43160;51.008;18.248;2024-02-16T16:49:10;14.30;;;6.00;;
57323;SDS011;43160;51.008;18.248;2024-02-16T16:58:55;11.80;;;3.70;;
57323;SDS011;43160;51.008;18.248;2024-02-16T17:08:39;16.70;;;6.60;;
57323;SDS011;43160;51.008;18.248;2024-02-16T17:18:25;8.80;;;2.80;;
57323;SDS011;43160;51.008;18.248;2024-02-16T17:28:14;11.60;;;2.50;;
57323;SDS011;43160;51.008;18.248;2024-02-16T17:38:00;11.30;;;4.50;;
57323;SDS011;43160;51.008;18.248;2024-02-16T17:47:46;12.80;;;4.30;;
57323;SDS011;43160;51.008;18.248;2024-02-16T17:57:30;26.30;;;8.50;;
57323;SDS011;43160;51.008;18.248;2024-02-16T18:07:13;17.40;;;5.80;;
57323;SDS011;43160;51.008;18.248;2024-02-16T18:16:59;15.90;;;4.60;;
57323;SDS011;43160;51.008;18.248;2024-02-16T18:26:43;9.20;;;2.80;;
57323;SDS011;43160;51.008;18.248;2024-02-16T18:36:29;16.80;;;5.80;;
57323;SDS011;43160;51.008;18.248;2024-02-16T18:46:13;13.30;;;4.30;;
57323;SDS011;43160;51.008;18.248;2024-02-16T18:55:58;12.70;;;3.80;;
57323;SDS011;43160;51.008;18.248;2024-02-16T19:05:42;13.60;;;5.40;;
57323;SDS011;43160;51.008;18.248;2024-02-16T19:15:28;12.40;;;4.30;;
57323;SDS011;43160;51.008;18.248;2024-02-16T19:25:19;14.50;;;6.60;;
57323;SDS011;43160;51.008;18.248;2024-02-16T19:35:04;16.40;;;5.10;;
57323;SDS011;43160;51.008;18.248;2024-02-16T19:44:50;10.00;;;3.10;;
57323;SDS011;43160;51.008;18.248;2024-02-16T19:54:33;13.70;;;5.30;;
57323;SDS011;43160;51.008;18.248;2024-02-16T20:04:17;18.50;;;4.70;;
57323;SDS011;43160;51.008;18.248;2024-02-16T20:14:02;20.90;;;6.80;;
57323;SDS011;43160;51.008;18.248;2024-02-16T20:23:49;12.50;;;4.40;;
57323;SDS011;43160;51.008;18.248;2024-02-16T20:33:40;18.80;;;5.60;;
57323;SDS011;43160;51.008;18.248;2024-02-16T20:43:23;22.90;;;7.70;;
57323;SDS011;43160;51.008;18.248;2024-02-16T20:53:07;16.10;;;5.70;;
57323;SDS011;43160;51.008;18.248;2024-02-16T21:02:51;13.70;;;5.70;;
57323;SDS011;43160;51.008;18.248;2024-02-16T21:12:41;12.10;;;3.80;;
57323;SDS011;43160;51.008;18.248;2024-02-16T21:22:25;16.10;;;5.70;;
57323;SDS011;43160;51.008;18.248;2024-02-16T21:32:10;12.40;;;5.10;;
57323;SDS011;43160;51.008;18.248;2024-02-16T21:41:55;19.70;;;8.00;;
57323;SDS011;43160;51.008;18.248;2024-02-16T21:51:39;15.70;;;5.60;;
57323;SDS011;43160;51.008;18.248;2024-02-16T22:01:28;18.50;;;5.50;;
57323;SDS011;43160;51.008;18.248;2024-02-16T22:11:13;16.70;;;6.70;;
57323;SDS011;43160;51.008;18.248;2024-02-16T22:21:05;24.30;;;8.60;;
57323;SDS011;43160;51.008;18.248;2024-02-16T22:26:01;24.80;;;12.20;;
57323;SDS011;43160;51.008;18.248;2024-02-16T22:35:45;17.70;;;7.20;;
57323;SDS011;43160;51.008;18.248;2024-02-16T22:45:30;21.10;;;8.60;;
57323;SDS011;43160;51.008;18.248;2024-02-16T22:55:15;25.80;;;8.30;;
57323;SDS011;43160;51.008;18.248;2024-02-16T23:02:43;28.00;;;13.80;;
57323;SDS011;43160;51.008;18.248;2024-02-16T23:12:27;21.00;;;9.30;;
57323;SDS011;43160;51.008;18.248;2024-02-16T23:22:15;21.60;;;9.10;;
57323;SDS011;43160;51.008;18.248;2024-02-16T23:31:58;27.50;;;9.30;;
57323;SDS011;43160;51.008;18.248;2024-02-16T23:41:44;15.60;;;6.90;;
57323;SDS011;43160;51.008;18.248;2024-02-16T23:51:29;24.80;;;9.00;;
